Time;durP1;ratioP1;P1;durP2;ratioP2;P2;SDS_P1;SDS_P2;PMS_P1;PMS_P2;Temp;Humidity;BMP_temperature;BMP_pressure;BME280_temperature;BME280_humidity;BME280_pressure;Samples;Min_cycle;Max_cycle;Signal;HPM_P1;HPM_P2
2023/12/14 00:00:24;;;;;;;16.63;10.25;;;;;;;9.99;70.70;101141.22;5050749;28;20041;-44
2023/12/14 00:02:49;;;;;;;16.77;9.80;;;;;;;10.04;69.93;101146.50;5050967;28;20041;-46
2023/12/14 00:05:15;;;;;;;19.38;10.10;;;;;;;9.98;70.69;101143.78;5051151;28;20037;-46
2023/12/14 00:07:40;;;;;;;17.33;9.85;;;;;;;9.78;70.97;101149.44;5050911;28;20036;-47
2023/12/14 00:10:06;;;;;;;17.65;9.85;;;;;;;9.78;70.83;101148.56;5051373;28;20154;-47
2023/12/14 00:12:31;;;;;;;16.08;8.52;;;;;;;9.82;71.26;101152.97;5049907;28;20412;-47
2023/12/14 00:14:57;;;;;;;14.77;9.02;;;;;;;9.57;72.47;101162.03;5051262;28;20061;-49
2023/12/14 00:17:22;;;;;;;16.45;8.70;;;;;;;9.65;71.83;101168.25;5050765;28;20116;-44
2023/12/14 00:19:47;;;;;;;19.75;9.52;;;;;;;9.65;71.69;101173.47;5051572;28;20048;-46
2023/12/14 00:22:13;;;;;;;15.85;9.02;;;;;;;9.48;71.22;101179.13;5052634;28;20033;-45
2023/12/14 00:24:38;;;;;;;15.40;8.90;;;;;;;9.64;71.62;101176.03;5050842;28;20072;-45
2023/12/14 00:27:04;;;;;;;14.45;8.25;;;;;;;9.78;70.88;101180.69;5051042;28;20047;-48
2023/12/14 00:29:29;;;;;;;15.23;8.45;;;;;;;9.92;70.28;101188.81;5050457;28;20044;-46
2023/12/14 00:31:54;;;;;;;17.63;9.05;;;;;;;9.88;70.35;101193.94;5050661;28;20039;-45
2023/12/14 00:34:20;;;;;;;16.00;9.20;;;;;;;9.94;70.28;101207.91;5050611;28;20044;-49
2023/12/14 00:36:45;;;;;;;14.85;8.68;;;;;;;9.73;70.55;101212.69;5050163;28;20083;-45
2023/12/14 00:39:10;;;;;;;15.05;8.70;;;;;;;9.77;70.86;101222.31;5050550;28;20040;-46
2023/12/14 00:41:36;;;;;;;15.32;8.40;;;;;;;9.78;70.33;101224.97;5049885;28;20086;-45
2023/12/14 00:44:01;;;;;;;16.20;9.07;;;;;;;9.71;70.46;101232.59;5051167;28;20044;-46
2023/12/14 00:46:27;;;;;;;15.68;8.75;;;;;;;9.79;69.41;101238.84;5050175;28;20044;-49
2023/12/14 00:48:52;;;;;;;14.75;8.88;;;;;;;9.83;70.18;101245.00;5050902;28;20064;-45
2023/12/14 00:51:17;;;;;;;14.57;8.43;;;;;;;9.66;69.79;101244.63;5050248;28;20037;-48
2023/12/14 00:53:43;;;;;;;15.93;8.30;;;;;;;10.01;69.42;101251.50;5050044;28;20109;-47
2023/12/14 00:56:09;;;;;;;16.20;9.10;;;;;;;9.67;70.09;101249.88;5050620;28;20438;-49
2023/12/14 00:58:34;;;;;;;17.20;8.90;;;;;;;9.67;70.75;101256.81;5050387;28;20033;-45
2023/12/14 01:00:59;;;;;;;15.60;9.15;;;;;;;9.96;69.09;101257.44;5051088;28;20033;-45
2023/12/14 01:03:25;;;;;;;18.58;9.60;;;;;;;9.75;69.80;101248.34;5051295;28;20055;-44
2023/12/14 01:05:50;;;;;;;16.70;8.98;;;;;;;9.89;68.92;101264.25;5051375;28;20033;-46
2023/12/14 01:08:15;;;;;;;17.38;9.50;;;;;;;9.54;70.10;101263.44;5051459;28;20032;-47
2023/12/14 01:10:41;;;;;;;19.98;9.52;;;;;;;9.58;70.81;101280.88;5050843;28;20145;-44
2023/12/14 01:13:06;;;;;;;19.75;9.68;;;;;;;9.53;71.08;101298.13;5050552;28;20067;-45
2023/12/14 01:15:31;;;;;;;20.38;9.57;;;;;;;9.86;69.75;101291.97;5048655;28;20033;-46
2023/12/14 01:17:57;;;;;;;19.92;9.70;;;;;;;9.67;70.02;101290.66;5050228;28;20583;-44
2023/12/14 01:20:23;;;;;;;19.33;10.05;;;;;;;9.88;69.31;101292.88;5049904;28;20083;-46
2023/12/14 01:22:48;;;;;;;19.88;9.55;;;;;;;9.84;69.21;101291.03;5050079;28;20453;-46
2023/12/14 01:25:13;;;;;;;20.17;9.63;;;;;;;9.69;69.33;101292.47;5049520;28;20040;-49
2023/12/14 01:27:39;;;;;;;19.33;9.73;;;;;;;9.67;69.89;101298.47;5049891;28;20057;-45
2023/12/14 01:30:05;;;;;;;19.45;9.85;;;;;;;9.45;70.54;101307.47;5050187;28;20033;-49
2023/12/14 01:32:30;;;;;;;21.13;9.90;;;;;;;9.50;69.80;101303.28;5049924;28;20060;-46
2023/12/14 01:34:55;;;;;;;18.30;9.80;;;;;;;9.80;69.34;101315.25;5050324;28;20111;-48
2023/12/14 01:37:20;;;;;;;19.58;9.70;;;;;;;10.07;68.49;101311.53;5049850;28;20517;-50
2023/12/14 01:39:46;;;;;;;19.05;10.27;;;;;;;9.67;69.16;101317.56;5050689;28;20044;-48
2023/12/14 01:42:11;;;;;;;24.20;9.85;;;;;;;9.43;70.63;101332.59;5048684;28;20048;-48
2023/12/14 01:44:36;;;;;;;19.08;10.20;;;;;;;9.64;69.52;101335.69;5049402;28;20032;-44
2023/12/14 01:47:02;;;;;;;21.42;9.85;;;;;;;9.82;69.03;101345.66;5050107;28;20063;-46
2023/12/14 01:49:27;;;;;;;18.58;9.43;;;;;;;9.66;68.88;101346.16;5049292;28;20396;-48
2023/12/14 01:51:52;;;;;;;21.20;9.98;;;;;;;10.00;68.66;101348.72;5049997;28;20079;-46
2023/12/14 01:54:21;;;;;;;20.10;9.88;;;;;;;10.07;67.53;101352.34;5050293;28;20087;-45
2023/12/14 01:56:46;;;;;;;19.38;9.40;;;;;;;10.08;68.25;101354.09;5047993;28;20033;-44
2023/12/14 01:59:12;;;;;;;20.23;9.98;;;;;;;9.77;68.35;101368.13;5049899;28;20557;-46
2023/12/14 02:01:44;;;;;;;20.33;9.95;;;;;;;9.85;68.39;101366.59;5049218;28;20068;-45
2023/12/14 02:04:11;;;;;;;19.35;9.85;;;;;;;9.79;68.81;101371.66;5049540;28;20117;-48
2023/12/14 02:06:36;;;;;;;18.02;9.10;;;;;;;10.02;68.75;101380.00;5049369;28;20760;-45
2023/12/14 02:09:02;;;;;;;20.67;9.65;;;;;;;10.30;67.97;101377.25;5049653;28;20037;-51
2023/12/14 02:11:27;;;;;;;19.63;9.48;;;;;;;10.29;67.94;101377.22;5049821;28;20159;-46
2023/12/14 02:13:53;;;;;;;21.48;9.65;;;;;;;10.07;68.35;101388.81;5050649;28;20470;-46
2023/12/14 02:16:18;;;;;;;19.10;9.75;;;;;;;9.66;69.93;101393.03;5050606;28;20456;-46
2023/12/14 02:18:44;;;;;;;17.95;9.27;;;;;;;9.99;68.22;101391.25;5050804;28;20499;-44
2023/12/14 02:21:09;;;;;;;22.75;10.00;;;;;;;10.10;68.07;101408.00;5052828;28;20061;-44
2023/12/14 02:23:35;;;;;;;20.55;9.77;;;;;;;9.73;69.27;101402.75;5052429;28;20102;-48
2023/12/14 02:26:00;;;;;;;23.50;9.23;;;;;;;9.94;68.25;101411.06;5062674;28;20105;-47
2023/12/14 02:28:26;;;;;;;19.02;9.40;;;;;;;9.41;69.97;101417.53;5061009;28;20025;-45
2023/12/14 02:30:52;;;;;;;19.83;9.05;;;;;;;9.46;70.26;101426.34;5048978;28;20052;-50
2023/12/14 02:33:17;;;;;;;20.85;9.43;;;;;;;9.65;68.69;101431.19;5049999;28;20033;-46
2023/12/14 02:35:43;;;;;;;18.35;9.30;;;;;;;9.90;68.63;101437.00;5050010;28;20060;-46
2023/12/14 02:38:08;;;;;;;20.55;9.18;;;;;;;9.96;68.81;101437.16;5054282;28;20128;-43
2023/12/14 02:40:33;;;;;;;18.90;8.73;;;;;;;9.69;69.53;101443.47;5053424;28;20037;-44
2023/12/14 02:42:59;;;;;;;21.95;9.70;;;;;;;9.84;68.26;101434.25;5052495;28;20040;-45
2023/12/14 02:45:24;;;;;;;18.02;9.13;;;;;;;10.02;67.94;101429.50;5052641;28;20040;-44
2023/12/14 02:47:51;;;;;;;21.38;8.63;;;;;;;9.92;68.38;101425.81;5052644;28;20424;-50
2023/12/14 02:50:17;;;;;;;16.95;8.35;;;;;;;9.76;68.63;101432.34;5052700;28;20518;-46
2023/12/14 02:52:42;;;;;;;17.08;8.38;;;;;;;9.76;68.19;101428.84;5051647;28;20025;-46
2023/12/14 02:55:08;;;;;;;19.17;8.85;;;;;;;9.78;68.07;101428.06;5052533;28;20036;-45
2023/12/14 02:57:33;;;;;;;20.25;8.75;;;;;;;10.00;67.58;101429.47;5051705;28;20037;-47
2023/12/14 02:59:58;;;;;;;17.40;8.57;;;;;;;9.73;68.04;101439.19;5052561;28;20041;-46
2023/12/14 03:02:24;;;;;;;18.33;8.75;;;;;;;9.78;68.38;101440.19;5051666;28;20518;-45
2023/12/14 03:04:49;;;;;;;18.05;8.52;;;;;;;9.47;68.63;101441.13;5051741;28;20036;-45
2023/12/14 03:07:14;;;;;;;21.50;9.32;;;;;;;9.74;68.12;101452.28;5052344;28;20067;-49
2023/12/14 03:09:44;;;;;;;25.20;8.70;;;;;;;9.96;67.71;101463.22;5051807;28;20056;-45
2023/12/14 03:12:10;;;;;;;24.10;9.18;;;;;;;9.62;68.32;101466.69;5052199;28;20061;-46
2023/12/14 03:14:35;;;;;;;18.65;8.60;;;;;;;9.72;68.69;101466.06;5052112;28;20056;-46
2023/12/14 03:17:01;;;;;;;20.90;9.02;;;;;;;9.57;68.70;101468.28;5052353;28;20041;-46
2023/12/14 03:19:26;;;;;;;20.85;8.52;;;;;;;9.74;68.59;101462.69;5051359;28;20041;-45
2023/12/14 03:21:52;;;;;;;23.95;8.82;;;;;;;9.68;68.18;101470.34;5051956;28;20044;-44
2023/12/14 03:24:17;;;;;;;22.10;8.90;;;;;;;10.00;67.49;101468.53;5049431;28;20123;-49
2023/12/14 03:26:43;;;;;;;19.10;8.60;;;;;;;9.76;68.37;101468.78;5059889;28;20052;-45
2023/12/14 03:29:08;;;;;;;22.65;8.75;;;;;;;9.83;68.11;101462.03;5052028;28;20227;-47
2023/12/14 03:31:35;;;;;;;23.80;8.15;;;;;;;9.73;68.55;101468.72;5051744;28;20053;-46
2023/12/14 03:34:00;;;;;;;19.08;7.65;;;;;;;9.75;67.48;101469.66;5052077;28;20041;-46
2023/12/14 03:36:27;;;;;;;17.50;7.60;;;;;;;9.54;67.88;101471.69;5051373;28;20040;-47
2023/12/14 03:38:52;;;;;;;16.95;8.00;;;;;;;9.59;67.81;101469.19;5052153;28;20049;-44
2023/12/14 03:41:18;;;;;;;22.23;8.30;;;;;;;9.86;66.84;101472.53;5052597;28;20384;-48
2023/12/14 03:43:44;;;;;;;15.88;7.43;;;;;;;9.86;67.10;101484.66;5052374;28;20025;-44
2023/12/14 03:46:09;;;;;;;19.85;8.15;;;;;;;9.93;67.20;101487.47;5052598;28;20029;-44
2023/12/14 03:48:34;;;;;;;18.05;8.25;;;;;;;9.84;66.61;101483.72;5051193;28;20120;-44
2023/12/14 03:51:03;;;;;;;15.32;7.50;;;;;;;10.02;66.38;101492.03;5052881;28;20037;-43
2023/12/14 03:53:29;;;;;;;16.83;7.43;;;;;;;9.81;67.14;101488.88;5051104;28;20041;-46
2023/12/14 03:55:54;;;;;;;19.13;7.50;;;;;;;9.71;66.63;101491.22;5051683;28;20525;-45
2023/12/14 03:58:20;;;;;;;14.05;6.68;;;;;;;9.67;66.48;101488.50;5051582;28;20079;-44
2023/12/14 04:00:45;;;;;;;16.42;6.90;;;;;;;9.80;66.34;101490.59;5050573;28;20550;-48
2023/12/14 04:03:10;;;;;;;12.02;5.93;;;;;;;10.00;65.01;101509.34;5051557;28;20072;-50
2023/12/14 04:05:36;;;;;;;14.63;6.53;;;;;;;9.75;66.15;101494.81;5050990;28;20080;-45
2023/12/14 04:08:01;;;;;;;13.10;6.32;;;;;;;9.79;65.97;101499.25;5051429;28;20102;-44
2023/12/14 04:10:26;;;;;;;16.88;5.93;;;;;;;9.94;64.92;101501.38;5050849;28;20040;-47
2023/12/14 04:12:52;;;;;;;14.45;6.03;;;;;;;9.95;64.86;101504.00;5051292;28;20036;-45
2023/12/14 04:15:17;;;;;;;13.15;6.43;;;;;;;9.82;64.61;101511.47;5049949;28;20036;-49
2023/12/14 04:17:42;;;;;;;12.88;5.55;;;;;;;9.90;64.92;101513.44;5051100;28;20037;-45
2023/12/14 04:20:08;;;;;;;12.48;5.88;;;;;;;9.83;64.56;101514.09;5050047;28;20040;-45
2023/12/14 04:22:34;;;;;;;11.68;5.80;;;;;;;9.70;65.27;101520.69;5051027;28;20041;-48
2023/12/14 04:24:59;;;;;;;11.80;5.35;;;;;;;9.86;64.89;101526.34;5051796;28;20041;-45
2023/12/14 04:27:28;;;;;;;13.77;5.88;;;;;;;10.06;63.72;101539.03;5050947;28;20082;-45
2023/12/14 04:29:53;;;;;;;12.65;5.80;;;;;;;10.00;63.73;101541.47;5051120;28;20040;-46
2023/12/14 04:32:18;;;;;;;12.50;5.20;;;;;;;10.00;64.41;101536.25;5050860;28;20403;-46
2023/12/14 04:34:44;;;;;;;11.68;5.20;;;;;;;10.03;63.66;101544.16;5050428;28;20033;-49
2023/12/14 04:37:09;;;;;;;12.10;5.50;;;;;;;9.74;64.56;101553.81;5050627;28;20569;-44
2023/12/14 04:39:34;;;;;;;10.27;5.18;;;;;;;9.94;64.39;101567.34;5050121;28;20041;-46
2023/12/14 04:42:00;;;;;;;12.57;5.13;;;;;;;9.83;64.64;101584.41;5050436;28;20040;-45
2023/12/14 04:44:25;;;;;;;16.60;5.80;;;;;;;9.49;65.75;101589.53;5050423;28;20099;-44
2023/12/14 04:46:51;;;;;;;10.70;5.20;;;;;;;9.73;65.32;101596.31;5050335;28;20454;-51
2023/12/14 04:49:16;;;;;;;10.43;5.07;;;;;;;9.79;64.70;101590.38;5050556;28;20036;-48
2023/12/14 04:51:41;;;;;;;12.07;5.07;;;;;;;10.01;64.03;101607.47;5048674;28;20110;-45
2023/12/14 04:54:07;;;;;;;12.23;4.60;;;;;;;9.87;63.50;101609.72;5050573;28;20037;-46
2023/12/14 04:56:33;;;;;;;10.95;4.70;;;;;;;9.82;65.06;101607.84;5050438;28;20043;-49
2023/12/14 04:58:58;;;;;;;12.02;5.20;;;;;;;9.97;64.27;101613.44;5051995;28;20072;-44
2023/12/14 05:01:26;;;;;;;11.30;4.72;;;;;;;9.94;64.02;101616.84;5051876;28;20057;-45
2023/12/14 05:03:52;;;;;;;13.48;4.82;;;;;;;10.01;64.06;101616.19;5050572;28;20565;-48
2023/12/14 05:06:17;;;;;;;9.23;4.90;;;;;;;9.84;63.61;101620.03;5050456;28;20041;-47
2023/12/14 05:08:42;;;;;;;11.27;4.82;;;;;;;10.01;64.28;101624.00;5050851;28;20131;-44
2023/12/14 05:11:08;;;;;;;10.07;4.80;;;;;;;9.78;64.42;101625.97;5050226;28;20499;-46
2023/12/14 05:13:33;;;;;;;11.25;4.80;;;;;;;9.70;64.53;101640.47;5050164;28;20040;-44
2023/12/14 05:15:58;;;;;;;10.27;4.57;;;;;;;9.73;64.21;101644.91;5050485;28;20037;-46
2023/12/14 05:18:24;;;;;;;9.30;4.80;;;;;;;10.04;63.50;101637.13;5050239;28;20503;-50
2023/12/14 05:20:50;;;;;;;9.43;5.00;;;;;;;9.84;63.42;101642.59;5050475;28;20357;-45
2023/12/14 05:23:15;;;;;;;11.15;5.20;;;;;;;9.92;63.09;101647.19;5050363;28;20388;-44
2023/12/14 05:25:41;;;;;;;9.95;6.10;;;;;;;9.74;63.40;101650.16;5050036;28;20048;-44
2023/12/14 05:28:06;;;;;;;10.60;5.70;;;;;;;9.99;62.52;101650.84;5051675;28;20093;-46
2023/12/14 05:30:31;;;;;;;11.90;6.32;;;;;;;9.76;62.88;101655.38;5050794;28;20040;-43
2023/12/14 05:32:57;;;;;;;12.52;6.85;;;;;;;9.88;62.56;101650.53;5050810;28;20499;-43
2023/12/14 05:35:22;;;;;;;15.80;6.82;;;;;;;9.74;62.92;101652.75;5049488;28;20063;-49
2023/12/14 05:37:49;;;;;;;12.02;6.72;;;;;;;9.83;62.87;101653.84;5049852;28;20555;-46
2023/12/14 05:40:14;;;;;;;13.10;6.50;;;;;;;9.74;63.07;101654.47;5049369;28;20128;-45
2023/12/14 05:42:40;;;;;;;9.77;6.10;;;;;;;9.80;62.62;101664.19;5049033;28;20032;-45
2023/12/14 05:45:06;;;;;;;9.80;5.78;;;;;;;9.71;62.82;101668.28;5049542;28;20037;-46
2023/12/14 05:47:33;;;;;;;12.77;6.20;;;;;;;9.61;63.02;101663.66;5048971;28;20055;-45
2023/12/14 05:49:59;;;;;;;13.77;6.15;;;;;;;9.44;63.52;101666.59;5049906;28;20037;-43
2023/12/14 05:52:24;;;;;;;11.55;5.70;;;;;;;9.59;62.51;101674.84;5048864;28;20041;-45
2023/12/14 05:54:49;;;;;;;9.95;5.78;;;;;;;9.44;63.21;101679.59;5049424;28;20029;-45
2023/12/14 05:57:15;;;;;;;10.60;6.15;;;;;;;9.28;63.51;101688.63;5049728;28;20047;-44
2023/12/14 05:59:40;;;;;;;14.60;6.38;;;;;;;9.33;63.61;101692.28;5049251;28;20037;-45
2023/12/14 06:02:06;;;;;;;11.68;5.97;;;;;;;9.51;62.94;101686.75;5049325;28;20032;-47
2023/12/14 06:04:31;;;;;;;9.80;5.93;;;;;;;9.48;62.79;101691.84;5048155;28;20044;-52
2023/12/14 06:06:57;;;;;;;14.20;6.15;;;;;;;9.49;62.83;101696.22;5049826;28;20041;-44
2023/12/14 06:09:26;;;;;;;10.50;5.70;;;;;;;9.05;64.69;101702.63;5048071;28;20033;-46
2023/12/14 06:11:51;;;;;;;11.82;5.63;;;;;;;8.84;64.67;101711.47;5051696;28;20029;-45
2023/12/14 06:14:17;;;;;;;11.00;5.50;;;;;;;8.96;64.28;101714.47;5053939;28;20033;-45
2023/12/14 06:16:43;;;;;;;13.27;6.32;;;;;;;9.07;63.70;101711.38;5053366;28;20034;-44
2023/12/14 06:19:08;;;;;;;9.98;5.10;;;;;;;8.71;64.84;101730.13;5053855;28;20072;-45
2023/12/14 06:21:33;;;;;;;10.95;5.53;;;;;;;8.90;64.98;101734.22;5053570;28;20774;-45
2023/12/14 06:23:59;;;;;;;10.90;5.65;;;;;;;9.03;64.59;101738.97;5053822;28;20515;-47
2023/12/14 06:26:25;;;;;;;12.85;6.13;;;;;;;9.04;64.15;101752.88;5053582;28;20033;-48
2023/12/14 06:28:50;;;;;;;11.40;6.30;;;;;;;9.10;63.93;101756.56;5054047;28;20458;-45
2023/12/14 06:31:17;;;;;;;12.25;6.78;;;;;;;8.86;65.26;101771.34;5053455;28;20061;-46
2023/12/14 06:33:42;;;;;;;14.02;6.55;;;;;;;9.18;64.60;101769.84;5052777;28;20025;-45
2023/12/14 06:36:08;;;;;;;10.55;5.95;;;;;;;9.22;64.16;101777.78;5054066;28;20043;-45
2023/12/14 06:38:34;;;;;;;11.52;6.03;;;;;;;9.29;64.22;101778.88;5053863;28;20036;-44
2023/12/14 06:40:59;;;;;;;12.25;6.55;;;;;;;9.31;63.98;101772.91;5054315;28;20037;-49
2023/12/14 06:43:25;;;;;;;11.73;6.32;;;;;;;9.12;64.74;101790.44;5053371;28;20048;-45
2023/12/14 06:45:50;;;;;;;13.43;6.80;;;;;;;9.23;64.33;101789.06;5053649;28;20041;-46
2023/12/14 06:48:15;;;;;;;12.38;6.45;;;;;;;9.23;64.00;101794.28;5053275;28;20059;-50
2023/12/14 06:50:41;;;;;;;12.73;6.45;;;;;;;9.19;64.45;101795.91;5052808;28;20068;-43
2023/12/14 06:53:06;;;;;;;13.55;6.55;;;;;;;9.25;64.17;101806.53;5053551;28;20395;-45
2023/12/14 06:55:31;;;;;;;13.98;6.82;;;;;;;9.17;64.19;101810.56;5053343;28;20165;-46
2023/12/14 06:57:56;;;;;;;10.77;6.53;;;;;;;8.75;65.21;101820.38;5053094;28;20086;-45
2023/12/14 07:00:22;;;;;;;11.10;6.53;;;;;;;8.87;65.85;101817.31;5052464;28;20082;-52
2023/12/14 07:02:47;;;;;;;14.73;7.22;;;;;;;8.90;64.77;101823.50;5052618;28;20586;-48
2023/12/14 07:05:13;;;;;;;15.27;7.45;;;;;;;8.92;64.72;101828.75;5052485;28;20176;-54
2023/12/14 07:07:38;;;;;;;12.65;7.03;;;;;;;8.76;65.12;101819.53;5052575;28;20040;-49
2023/12/14 07:10:04;;;;;;;13.07;7.00;;;;;;;8.77;64.58;101817.84;5053725;28;20029;-45
2023/12/14 07:12:29;;;;;;;13.20;7.25;;;;;;;8.70;64.46;101828.84;5053409;28;20040;-46
2023/12/14 07:14:54;;;;;;;18.00;7.10;;;;;;;8.67;64.64;101831.31;5054112;28;20125;-46
2023/12/14 07:17:20;;;;;;;11.88;6.93;;;;;;;8.54;64.97;101840.38;5054446;28;20033;-47
2023/12/14 07:19:45;;;;;;;16.60;7.25;;;;;;;8.36;65.64;101845.78;5052803;28;20037;-51
2023/12/14 07:22:10;;;;;;;17.65;7.60;;;;;;;8.33;65.73;101849.97;5053249;28;20071;-44
2023/12/14 07:24:35;;;;;;;15.27;7.18;;;;;;;8.29;66.09;101851.56;5052366;28;20456;-47
2023/12/14 07:27:01;;;;;;;17.02;8.20;;;;;;;8.28;66.10;101856.69;5053119;28;20078;-49
2023/12/14 07:29:26;;;;;;;12.73;6.93;;;;;;;8.32;66.48;101854.28;5052227;28;20657;-45
2023/12/14 07:31:52;;;;;;;16.08;7.10;;;;;;;8.37;66.57;101864.84;5052423;28;20048;-45
2023/12/14 07:34:18;;;;;;;16.15;7.38;;;;;;;8.35;66.59;101864.81;5052952;28;20048;-49
2023/12/14 07:36:43;;;;;;;15.20;7.28;;;;;;;8.33;66.32;101860.38;5052255;28;20675;-45
2023/12/14 07:39:09;;;;;;;16.60;7.72;;;;;;;8.30;66.51;101863.72;5052870;28;20045;-45
2023/12/14 07:41:35;;;;;;;12.98;7.05;;;;;;;8.27;66.09;101858.41;5051691;28;20033;-46
2023/12/14 07:44:00;;;;;;;13.00;6.90;;;;;;;8.23;65.99;101869.50;5053056;28;20033;-46
2023/12/14 07:46:26;;;;;;;15.15;6.80;;;;;;;8.15;66.20;101864.00;5052390;28;20048;-46
2023/12/14 07:48:51;;;;;;;15.85;6.95;;;;;;;8.15;66.40;101861.41;5052564;28;20036;-46
2023/12/14 07:51:17;;;;;;;14.60;7.18;;;;;;;8.10;66.66;101860.34;5052322;28;20072;-48
2023/12/14 07:53:42;;;;;;;16.73;7.53;;;;;;;8.07;67.25;101852.44;5051612;28;20158;-47
2023/12/14 07:56:08;;;;;;;15.57;7.45;;;;;;;8.03;66.95;101867.84;5052426;28;20107;-45
2023/12/14 07:58:33;;;;;;;16.95;7.60;;;;;;;7.87;67.35;101871.50;5051692;28;20041;-45
2023/12/14 08:00:59;;;;;;;13.35;7.30;;;;;;;7.90;67.32;101873.38;5051943;28;20033;-48
2023/12/14 08:03:24;;;;;;;17.58;7.30;;;;;;;7.86;67.71;101880.16;5051533;28;20029;-45
2023/12/14 08:05:49;;;;;;;16.40;7.72;;;;;;;7.83;67.82;101886.91;5052150;28;20128;-45
2023/12/14 08:08:15;;;;;;;15.02;7.43;;;;;;;7.79;68.02;101893.72;5051612;28;20043;-49
2023/12/14 08:10:40;;;;;;;17.23;7.38;;;;;;;7.84;68.60;101901.69;5050756;28;20132;-44
2023/12/14 08:13:05;;;;;;;14.63;7.43;;;;;;;7.96;68.49;101907.38;5051405;28;20057;-46
2023/12/14 08:15:31;;;;;;;14.20;7.53;;;;;;;8.02;68.50;101911.09;5051585;28;20068;-47
2023/12/14 08:17:56;;;;;;;18.20;7.90;;;;;;;8.09;68.64;101912.22;5051608;28;20087;-44
2023/12/14 08:20:21;;;;;;;18.00;7.63;;;;;;;8.15;69.11;101922.88;5051640;28;20048;-48
2023/12/14 08:22:47;;;;;;;17.25;7.90;;;;;;;8.27;69.24;101922.47;5052775;28;20045;-44
2023/12/14 08:25:17;;;;;;;16.27;7.78;;;;;;;8.34;69.50;101928.00;5052708;28;20033;-46
2023/12/14 08:27:43;;;;;;;18.83;7.85;;;;;;;8.40;69.51;101937.75;5052311;28;20768;-45
2023/12/14 08:30:10;;;;;;;16.05;8.23;;;;;;;8.38;69.97;101935.06;5052373;28;20458;-44
2023/12/14 08:32:36;;;;;;;15.80;8.02;;;;;;;8.62;69.96;101940.31;5051136;28;20033;-44
2023/12/14 08:35:01;;;;;;;18.67;8.57;;;;;;;8.68;70.23;101948.34;5051223;28;20605;-44
2023/12/14 08:37:26;;;;;;;17.02;8.65;;;;;;;8.79;70.31;101959.16;5052794;28;20491;-46
2023/12/14 08:39:52;;;;;;;16.20;8.27;;;;;;;9.00;70.20;101965.19;5051413;28;20565;-44
2023/12/14 08:42:17;;;;;;;15.93;8.00;;;;;;;9.06;69.81;101972.31;5050733;28;20029;-45
2023/12/14 08:44:42;;;;;;;18.85;8.05;;;;;;;9.17;69.93;101966.66;5050033;28;20047;-46
2023/12/14 08:47:11;;;;;;;16.85;8.63;;;;;;;9.32;69.89;101967.25;5050532;28;20495;-44
2023/12/14 08:49:36;;;;;;;20.52;8.68;;;;;;;9.53;69.91;101958.41;5050164;28;20032;-44
2023/12/14 08:52:01;;;;;;;16.27;8.43;;;;;;;9.41;68.01;101974.47;5050257;28;20203;-45
2023/12/14 08:54:27;;;;;;;17.05;8.77;;;;;;;9.58;68.22;101980.25;5050099;28;20033;-45
2023/12/14 08:56:52;;;;;;;17.70;8.10;;;;;;;9.72;67.90;101973.81;5050644;28;20082;-43
2023/12/14 08:59:19;;;;;;;18.02;8.82;;;;;;;9.80;67.49;101981.91;5050601;28;20389;-45
2023/12/14 09:01:45;;;;;;;19.70;8.20;;;;;;;9.93;66.89;101976.28;5049831;28;20064;-50
2023/12/14 09:04:10;;;;;;;17.70;7.80;;;;;;;10.02;66.57;101984.38;5050176;28;20085;-48
2023/12/14 09:06:36;;;;;;;15.30;7.93;;;;;;;10.03;65.25;101986.16;5049686;28;20025;-46
2023/12/14 09:09:02;;;;;;;13.88;7.75;;;;;;;10.11;65.60;101996.03;5050292;28;20040;-46
2023/12/14 09:11:28;;;;;;;17.35;8.02;;;;;;;10.05;64.45;101994.94;5049431;28;20048;-47
2023/12/14 09:13:53;;;;;;;13.68;7.50;;;;;;;10.07;64.50;101996.72;5050321;28;20434;-45
2023/12/14 09:16:18;;;;;;;13.65;7.30;;;;;;;10.02;64.49;101994.81;5050220;28;20119;-44
2023/12/14 09:18:44;;;;;;;16.15;7.25;;;;;;;9.92;64.03;101998.84;5047993;28;20116;-46
2023/12/14 09:21:09;;;;;;;15.40;7.05;;;;;;;10.06;64.58;102000.16;5049667;28;20491;-44
2023/12/14 09:23:34;;;;;;;16.45;7.60;;;;;;;10.13;64.00;102007.34;5040911;28;20114;-46
2023/12/14 09:26:00;;;;;;;14.85;7.35;;;;;;;10.25;63.43;102006.91;5063427;28;20091;-52
2023/12/14 09:28:26;;;;;;;12.55;6.95;;;;;;;10.18;63.27;102006.69;5049442;28;20041;-45
2023/12/14 09:30:52;;;;;;;13.40;6.88;;;;;;;10.19;63.25;102014.53;5049757;28;20052;-48
2023/12/14 09:33:17;;;;;;;13.38;7.13;;;;;;;10.09;62.75;102025.44;5049902;28;20033;-45
2023/12/14 09:35:43;;;;;;;13.05;6.70;;;;;;;9.87;62.54;102026.44;5048662;28;20033;-46
2023/12/14 09:38:09;;;;;;;14.70;7.20;;;;;;;9.62;63.58;102037.72;5049560;28;20033;-45
2023/12/14 09:40:34;;;;;;;19.25;8.45;;;;;;;9.47;65.28;102041.47;5049353;28;20129;-47
2023/12/14 09:43:00;;;;;;;18.10;8.27;;;;;;;9.51;64.86;102059.88;5048197;28;20045;-48
2023/12/14 09:45:29;;;;;;;14.07;7.85;;;;;;;9.44;65.65;102054.41;5048677;28;20107;-47
2023/12/14 09:47:57;;;;;;;16.30;7.57;;;;;;;9.78;64.79;102058.25;5049579;28;20037;-50
2023/12/14 09:50:26;;;;;;;20.45;8.35;;;;;;;9.91;64.14;102054.38;5048532;28;20044;-49
2023/12/14 09:52:51;;;;;;;14.65;7.82;;;;;;;9.83;63.85;102057.53;5049537;28;20037;-47
2023/12/14 09:55:16;;;;;;;13.35;7.38;;;;;;;9.74;64.30;102058.09;5049517;28;20041;-45
2023/12/14 09:57:42;;;;;;;15.93;7.60;;;;;;;9.46;65.44;102061.41;5049172;28;20032;-49
2023/12/14 10:00:10;;;;;;;16.05;7.95;;;;;;;9.63;64.74;102059.44;5049407;28;20399;-47
2023/12/14 10:02:36;;;;;;;14.55;7.38;;;;;;;9.76;64.58;102057.31;5048691;28;20609;-51
2023/12/14 10:05:01;;;;;;;16.83;7.45;;;;;;;9.55;64.73;102063.47;5049435;28;20122;-47
2023/12/14 10:07:26;;;;;;;15.43;7.80;;;;;;;9.84;63.84;102068.00;5049008;28;20029;-45
2023/12/14 10:09:53;;;;;;;13.35;7.53;;;;;;;10.16;63.50;102069.13;5049569;28;20123;-49
2023/12/14 10:12:19;;;;;;;15.52;7.55;;;;;;;10.20;63.31;102067.53;5049533;28;20033;-47
2023/12/14 10:14:45;;;;;;;14.48;7.50;;;;;;;10.38;63.49;102069.03;5049361;28;20116;-46
2023/12/14 10:17:19;;;;;;;13.32;7.13;;;;;;;10.57;62.81;102063.59;5049975;28;20116;-49
2023/12/14 10:19:46;;;;;;;16.35;7.43;;;;;;;10.52;61.77;102070.38;5050025;28;20084;-51
2023/12/14 10:22:14;;;;;;;19.65;8.23;;;;;;;10.67;61.65;102066.50;5054235;28;20043;-47
2023/12/14 10:24:43;;;;;;;15.52;7.38;;;;;;;10.06;62.52;102072.25;5053448;28;20649;-47
2023/12/14 10:27:08;;;;;;;17.50;7.95;;;;;;;10.17;62.62;102070.94;5049692;28;20068;-46
2023/12/14 10:29:36;;;;;;;14.23;8.00;;;;;;;10.65;61.91;102074.28;5048905;28;20056;-46
2023/12/14 10:32:06;;;;;;;15.48;7.63;;;;;;;10.87;61.46;102081.03;5049361;28;20037;-45
2023/12/14 10:34:32;;;;;;;14.70;7.50;;;;;;;10.91;60.92;102073.38;5048831;28;20098;-47
2023/12/14 10:36:58;;;;;;;14.77;7.97;;;;;;;10.99;60.63;102069.25;5050048;28;20119;-44
2023/12/14 10:39:25;;;;;;;15.45;7.60;;;;;;;11.12;60.01;102064.41;5049817;28;20080;-44
2023/12/14 10:41:54;;;;;;;13.40;7.43;;;;;;;11.03;59.72;102071.97;5049613;28;20407;-44
2023/12/14 10:44:21;;;;;;;14.15;7.45;;;;;;;11.06;59.57;102086.00;5049751;28;20029;-49
2023/12/14 10:46:48;;;;;;;14.35;8.10;;;;;;;11.11;59.24;102088.72;5049590;28;20041;-45
2023/12/14 10:49:15;;;;;;;14.00;7.38;;;;;;;11.07;59.29;102090.38;5049719;28;20032;-44
2023/12/14 10:51:42;;;;;;;13.63;7.63;;;;;;;10.90;59.41;102097.69;5049362;28;20036;-49
2023/12/14 10:54:09;;;;;;;13.93;7.93;;;;;;;10.77;59.71;102098.13;5049377;28;20162;-49
2023/12/14 10:56:34;;;;;;;15.20;7.82;;;;;;;10.86;59.56;102102.75;5048749;28;20114;-45
2023/12/14 10:59:01;;;;;;;16.08;7.88;;;;;;;10.86;59.43;102103.63;5052966;28;20080;-48
2023/12/14 11:01:26;;;;;;;18.38;7.95;;;;;;;10.75;59.48;102105.00;5052459;28;20029;-47
2023/12/14 11:03:56;;;;;;;15.30;8.45;;;;;;;10.68;60.49;102110.88;5052286;28;20036;-45
2023/12/14 11:06:25;;;;;;;17.70;7.97;;;;;;;10.85;60.33;102111.44;5051696;28;20099;-44
2023/12/14 11:08:55;;;;;;;19.95;8.48;;;;;;;11.09;60.13;102116.53;5052653;28;20120;-49
2023/12/14 11:11:21;;;;;;;14.05;8.25;;;;;;;11.21;59.93;102115.19;5052106;28;20029;-44
2023/12/14 11:13:52;;;;;;;14.98;8.35;;;;;;;11.38;58.82;102105.25;5052167;28;20037;-47
2023/12/14 11:16:20;;;;;;;16.75;8.73;;;;;;;10.98;58.06;102114.44;5052486;28;20044;-45